TimeEEST,TemperatureF,Dew PointF,Humidity,Sea Level PressureIn,VisibilityMPH,Wind Direction,Wind SpeedMPH,Gust SpeedMPH,PrecipitationIn,Events,Conditions,WindDirDegrees,DateUTC
12:50 AM,50.0,41.0,71,30.06,-9999.0,NNW,6.9,-,N/A,,Clear,330,2013-07-24 21:50:00
2:50 AM,46.4,37.4,71,30.06,-9999.0,Calm,Calm,-,N/A,,Clear,0,2013-07-24 23:50:00
3:00 AM,50,40,58,,9,Calm,Calm,,,,,,2013-07-25 00:00:00
3:50 AM,46.4,37.4,71,30.06,-9999.0,NNE,4.6,-,N/A,,Clear,20,2013-07-25 00:50:00
4:50 AM,44.6,33.8,66,30.06,-9999.0,Calm,Calm,-,N/A,,Clear,0,2013-07-25 01:50:00
5:50 AM,48.2,37.4,66,30.06,-9999.0,NW,4.6,-,N/A,,Clear,320,2013-07-25 02:50:00
6:50 AM,53.6,39.2,58,30.06,-9999.0,NNW,6.9,-,N/A,,Clear,340,2013-07-25 03:50:00
7:50 AM,55.4,37.4,51,30.06,-9999.0,NNW,11.5,-,N/A,,Clear,340,2013-07-25 04:50:00
8:50 AM,59.0,39.2,48,30.06,-9999.0,NNW,11.5,-,N/A,,Clear,330,2013-07-25 05:50:00
9:00 AM,67,40,25,,9,SE,2.3,,,,,140,2013-07-25 06:00:00
9:50 AM,64.4,35.6,34,30.04,-9999.0,North,12.7,-,N/A,,Clear,350,2013-07-25 06:50:00
10:50 AM,68.0,24.8,20,30.04,-9999.0,NNE,16.1,-,N/A,,Clear,30,2013-07-25 07:50:00
11:50 AM,69.8,24.8,18,30.04,-9999.0,North,16.1,-,N/A,,Clear,10,2013-07-25 08:50:00
12:50 PM,69.8,26.6,20,30.01,-9999.0,NNW,17.3,-,N/A,,Clear,340,2013-07-25 09:50:00
1:50 PM,71.6,32.0,23,30.01,-9999.0,North,16.1,-,N/A,,Clear,350,2013-07-25 10:50:00
2:50 PM,69.8,33.8,27,30.01,-9999.0,NNW,23.0,-,N/A,,Clear,340,2013-07-25 11:50:00
3:00 PM,78,30,9,,9,North,5.8,,,,,0,2013-07-25 12:00:00
3:50 PM,69.8,35.6,28,30.01,-9999.0,NNW,20.7,-,N/A,,Clear,340,2013-07-25 12:50:00
4:50 PM,68.0,35.6,30,30.01,6.2,NNW,23.0,-,N/A,,Scattered Clouds,340,2013-07-25 13:50:00
5:50 PM,66.2,39.2,37,30.01,6.2,NNW,23.0,-,N/A,,Scattered Clouds,340,2013-07-25 14:50:00
6:50 PM,64.4,37.4,37,30.04,6.2,North,18.4,-,N/A,,Scattered Clouds,360,2013-07-25 15:50:00
7:50 PM,60.8,39.2,45,30.04,-9999.0,North,17.3,-,N/A,,Clear,10,2013-07-25 16:50:00
8:50 PM,55.4,39.2,54,30.06,-9999.0,NNE,11.5,-,N/A,,Clear,30,2013-07-25 17:50:00
9:50 PM,51.8,39.2,62,30.06,-9999.0,NNE,10.4,-,N/A,,Clear,30,2013-07-25 18:50:00
10:50 PM,51.8,39.2,62,30.06,-9999.0,NNE,4.6,-,N/A,,Clear,20,2013-07-25 19:50:00
11:50 PM,50.0,42.8,76,30.06,-9999.0,North,3.5,-,N/A,,Clear,350,2013-07-25 20:50:00